createdAt,value
2023-03-20T00:01:50.574Z,12.13
2023-03-20T00:03:56.094Z,17.13
2023-03-20T00:06:01.037Z,14.82
2023-03-20T00:08:06.142Z,13.38
2023-03-20T00:10:12.684Z,13.15
2023-03-20T00:12:27.274Z,23.75
2023-03-20T00:14:36.729Z,26.23
2023-03-20T00:16:44.623Z,20.17
2023-03-20T00:18:49.974Z,20.73
2023-03-20T00:20:55.408Z,26.45
2023-03-20T00:23:00.713Z,12.43
2023-03-20T00:25:05.843Z,10.77
2023-03-20T00:27:16.371Z,17.17
2023-03-20T00:29:26.066Z,13.00
2023-03-20T00:31:37.371Z,14.68
2023-03-20T00:33:42.936Z,10.52
2023-03-20T00:35:47.864Z,12.98
2023-03-20T00:37:54.444Z,11.85
2023-03-20T00:39:59.317Z,20.42
2023-03-20T00:42:07.650Z,11.55
2023-03-20T00:44:24.478Z,16.40
2023-03-20T00:46:30.856Z,15.20
2023-03-20T00:48:40.597Z,24.00
2023-03-20T00:50:45.757Z,12.60
2023-03-20T00:52:51.790Z,12.63
2023-03-20T00:54:56.679Z,13.48
2023-03-20T00:57:05.566Z,11.43
2023-03-20T00:59:18.745Z,19.95
2023-03-20T01:01:23.735Z,13.07
2023-03-20T01:03:30.576Z,18.13
2023-03-20T01:05:38.055Z,17.58
2023-03-20T01:07:43.231Z,16.95
2023-03-20T01:09:48.384Z,16.15
2023-03-20T01:11:54.195Z,13.98
2023-03-20T01:13:59.382Z,13.00
2023-03-20T01:16:04.300Z,14.32
2023-03-20T01:18:09.926Z,15.40
2023-03-20T01:20:26.386Z,13.52
2023-03-20T01:22:34.134Z,25.25
2023-03-20T01:24:40.741Z,17.70
2023-03-20T01:26:47.779Z,16.45
2023-03-20T01:28:54.286Z,18.17
2023-03-20T01:31:00.173Z,15.10
2023-03-20T01:33:15.077Z,12.75
2023-03-20T01:35:25.399Z,24.23
2023-03-20T01:37:33.775Z,18.10
2023-03-20T01:39:41.841Z,21.60
2023-03-20T01:41:47.462Z,16.30
2023-03-20T01:43:53.997Z,14.63
2023-03-20T01:46:06.361Z,18.42
2023-03-20T01:50:32.052Z,19.38
2023-03-20T01:52:58.209Z,19.73
2023-03-20T01:55:04.404Z,16.65
2023-03-20T01:57:15.633Z,14.65
2023-03-20T01:59:27.693Z,17.95
2023-03-20T02:01:33.273Z,14.38
2023-03-20T02:03:38.409Z,22.92
2023-03-20T02:05:59.889Z,15.38
2023-03-20T02:08:30.363Z,16.70
2023-03-20T02:10:40.574Z,17.45
2023-03-20T02:12:56.621Z,30.05
2023-03-20T02:15:10.220Z,27.48
2023-03-20T02:17:33.551Z,18.65
2023-03-20T02:20:01.400Z,20.45
2023-03-20T02:22:41.580Z,25.67
2023-03-20T02:25:26.000Z,23.33
2023-03-20T02:30:28.760Z,21.70
2023-03-20T02:33:19.434Z,21.05
2023-03-20T02:36:22.506Z,19.15
2023-03-20T02:39:01.696Z,29.05
2023-03-20T02:41:16.761Z,16.63
2023-03-20T02:43:27.481Z,19.92
2023-03-20T02:45:40.967Z,21.80
2023-03-20T02:47:58.843Z,16.92
2023-03-20T02:50:16.478Z,18.52
2023-03-20T02:52:29.169Z,26.10
2023-03-20T02:54:45.188Z,38.42
2023-03-20T02:57:01.758Z,17.13
2023-03-20T02:59:18.965Z,26.83
2023-03-20T03:01:29.144Z,20.40
2023-03-20T03:03:41.515Z,21.98
2023-03-20T03:05:53.462Z,20.02
2023-03-20T03:08:02.790Z,25.65
2023-03-20T03:10:20.398Z,18.17
2023-03-20T03:12:31.159Z,22.10
2023-03-20T03:14:44.072Z,22.00
2023-03-20T03:16:54.793Z,19.27
2023-03-20T03:19:08.082Z,21.80
2023-03-20T03:21:16.667Z,19.98
2023-03-20T03:23:32.612Z,19.80
2023-03-20T03:25:44.124Z,21.33
2023-03-20T03:27:54.741Z,20.52
2023-03-20T03:30:05.999Z,24.85
2023-03-20T03:32:28.841Z,25.27
2023-03-20T03:34:34.640Z,22.80
2023-03-20T03:36:49.302Z,23.25
2023-03-20T03:39:01.335Z,24.05
2023-03-20T03:41:23.384Z,22.25
2023-03-20T03:43:36.767Z,23.10
2023-03-20T03:45:49.062Z,33.80
2023-03-20T03:47:59.618Z,23.95
2023-03-20T03:50:12.994Z,27.27
2023-03-20T03:52:23.397Z,27.30
2023-03-20T03:54:33.498Z,22.38
2023-03-20T03:57:05.315Z,20.65
2023-03-20T03:59:16.273Z,23.73
2023-03-20T04:01:25.695Z,21.23
2023-03-20T04:03:38.000Z,25.58
2023-03-20T04:05:47.573Z,30.52
2023-03-20T04:07:59.682Z,27.55
2023-03-20T04:10:04.540Z,25.30
2023-03-20T04:12:38.075Z,28.80
2023-03-20T04:14:47.081Z,23.50
2023-03-20T04:16:59.517Z,25.65
2023-03-20T04:19:05.917Z,23.67
2023-03-20T04:21:12.374Z,28.70
2023-03-20T04:23:18.120Z,31.35
2023-03-20T04:25:27.505Z,24.33
2023-03-20T04:27:37.075Z,26.10
2023-03-20T04:29:49.167Z,27.27
2023-03-20T04:32:23.514Z,24.13
2023-03-20T04:34:48.328Z,29.65
2023-03-20T04:37:08.580Z,27.13
2023-03-20T04:39:33.741Z,25.80
2023-03-20T04:41:40.014Z,23.70
2023-03-20T04:43:48.421Z,27.52
2023-03-20T04:45:53.439Z,26.33
2023-03-20T04:47:59.741Z,28.02
2023-03-20T04:50:05.885Z,26.00
2023-03-20T04:52:11.697Z,31.20
2023-03-20T04:54:20.106Z,27.95
2023-03-20T04:56:25.263Z,29.02
2023-03-20T04:58:47.975Z,30.40
2023-03-20T05:00:54.338Z,35.97
2023-03-20T05:03:00.382Z,36.80
2023-03-20T05:05:06.084Z,32.65
2023-03-20T05:07:13.703Z,39.10
2023-03-20T05:09:28.474Z,34.65
2023-03-20T05:11:34.898Z,32.65
2023-03-20T05:14:17.681Z,38.70
2023-03-20T05:18:43.689Z,37.60
2023-03-20T05:21:10.652Z,38.83
2023-03-20T05:23:32.882Z,46.70
2023-03-20T05:26:00.946Z,38.80
2023-03-20T05:28:24.618Z,42.33
2023-03-20T05:30:50.536Z,42.28
2023-03-20T05:33:19.300Z,40.05
2023-03-20T05:35:50.590Z,38.50
2023-03-20T05:38:14.371Z,40.58
2023-03-20T05:40:35.966Z,42.20
2023-03-20T05:43:07.049Z,43.08
2023-03-20T05:45:28.733Z,48.28
2023-03-20T05:47:53.956Z,44.00
2023-03-20T05:50:22.982Z,44.28
2023-03-20T05:52:50.197Z,44.03
2023-03-20T05:55:27.704Z,44.28
2023-03-20T05:57:52.859Z,41.65
2023-03-20T06:00:07.040Z,47.03
2023-03-20T06:02:17.557Z,47.13
2023-03-20T06:04:35.273Z,48.92
2023-03-20T06:06:54.694Z,53.55
2023-03-20T06:09:01.097Z,46.38
2023-03-20T06:11:06.686Z,40.95
2023-03-20T06:13:14.842Z,43.10
2023-03-20T06:15:20.599Z,49.50
2023-03-20T06:17:32.772Z,47.42
2023-03-20T06:19:44.029Z,44.70
2023-03-20T06:21:49.264Z,48.28
2023-03-20T06:23:58.158Z,41.65
2023-03-20T06:26:03.126Z,44.40
2023-03-20T06:28:17.235Z,49.20
2023-03-20T06:30:23.563Z,43.17
2023-03-20T06:32:29.113Z,44.42
2023-03-20T06:34:37.825Z,48.05
2023-03-20T06:36:45.662Z,48.38
2023-03-20T06:38:58.700Z,48.55
2023-03-20T06:41:05.595Z,44.70
2023-03-20T06:43:12.369Z,52.42
2023-03-20T06:45:26.490Z,50.67
2023-03-20T06:47:35.468Z,49.08
2023-03-20T06:49:42.526Z,47.20
2023-03-20T06:51:51.462Z,51.55
2023-03-20T06:54:02.351Z,53.10
2023-03-20T06:56:10.972Z,47.47
2023-03-20T06:58:18.790Z,47.95
2023-03-20T07:00:30.013Z,47.15
2023-03-20T07:02:36.137Z,46.05
2023-03-20T07:04:41.701Z,45.38
2023-03-20T07:06:47.186Z,45.67
2023-03-20T07:08:55.160Z,48.95
2023-03-20T07:11:01.495Z,51.90
2023-03-20T07:13:07.212Z,45.67
2023-03-20T07:15:15.346Z,44.63
2023-03-20T07:17:20.301Z,47.00
2023-03-20T07:19:26.278Z,45.85
2023-03-20T07:21:35.057Z,50.33
2023-03-20T07:23:40.156Z,49.75
2023-03-20T07:25:48.939Z,48.13
2023-03-20T07:27:57.050Z,50.90
2023-03-20T07:30:04.908Z,52.20
2023-03-20T07:32:10.383Z,53.38
2023-03-20T07:34:19.655Z,53.40
2023-03-20T07:36:24.949Z,46.83
2023-03-20T07:38:29.963Z,47.47
2023-03-20T07:40:48.986Z,50.28
2023-03-20T07:42:55.117Z,56.35
2023-03-20T07:45:20.508Z,53.05
2023-03-20T07:47:25.711Z,56.58
2023-03-20T07:49:30.649Z,53.90
2023-03-20T07:51:35.937Z,50.83
2023-03-20T07:53:41.572Z,52.28
2023-03-20T07:55:50.009Z,55.72
2023-03-20T07:57:54.904Z,51.15
2023-03-20T07:59:59.960Z,52.83
2023-03-20T08:02:04.865Z,57.72
2023-03-20T08:04:09.873Z,53.72
2023-03-20T08:06:14.750Z,48.00
2023-03-20T08:08:19.904Z,54.22
2023-03-20T08:10:24.850Z,55.30
2023-03-20T08:12:32.337Z,47.28
2023-03-20T08:14:38.701Z,47.35
2023-03-20T08:16:44.058Z,50.78
2023-03-20T08:18:50.528Z,50.90
2023-03-20T08:20:55.451Z,51.33
2023-03-20T08:23:00.329Z,53.35
2023-03-20T08:25:05.231Z,59.40
2023-03-20T08:27:10.448Z,55.05
2023-03-20T08:29:19.623Z,58.40
2023-03-20T08:31:24.609Z,51.03
2023-03-20T08:33:29.572Z,52.45
2023-03-20T08:35:34.834Z,48.20
2023-03-20T08:37:40.504Z,50.35
2023-03-20T08:39:45.433Z,50.25
2023-03-20T08:41:50.311Z,58.20
2023-03-20T08:43:55.213Z,52.35
2023-03-20T08:46:02.702Z,53.80
2023-03-20T08:48:08.157Z,59.15
2023-03-20T08:50:14.797Z,54.15
2023-03-20T08:52:19.733Z,57.00
2023-03-20T08:54:25.284Z,60.47
2023-03-20T08:56:30.534Z,56.03
2023-03-20T08:58:35.456Z,54.80
2023-03-20T09:00:40.316Z,53.97
2023-03-20T09:02:47.812Z,57.72
2023-03-20T09:04:52.714Z,56.35
2023-03-20T09:06:57.673Z,62.95
2023-03-20T09:09:03.685Z,60.35
2023-03-20T09:11:09.841Z,54.83
2023-03-20T09:13:26.605Z,56.78
2023-03-20T09:15:32.248Z,48.05
2023-03-20T09:17:37.145Z,49.65
2023-03-20T09:19:45.129Z,62.03
2023-03-20T09:21:50.068Z,62.47
2023-03-20T09:23:55.382Z,52.10
2023-03-20T09:26:00.841Z,58.58
2023-03-20T09:28:06.065Z,55.67
2023-03-20T09:30:14.687Z,58.55
2023-03-20T09:32:19.568Z,52.10
2023-03-20T09:34:24.791Z,53.30
2023-03-20T09:36:33.256Z,63.97
2023-03-20T09:38:38.409Z,55.35
2023-03-20T09:40:57.037Z,54.22
2023-03-20T09:43:12.480Z,54.05
2023-03-20T09:45:25.788Z,58.03
2023-03-20T09:47:38.861Z,49.10
2023-03-20T09:49:56.050Z,53.20
2023-03-20T09:52:11.077Z,56.58
2023-03-20T09:54:25.374Z,54.25
2023-03-20T09:56:33.210Z,54.30
2023-03-20T09:58:40.312Z,48.53
2023-03-20T10:00:49.416Z,46.75
2023-03-20T10:03:01.380Z,49.40
2023-03-20T10:05:18.660Z,43.15
2023-03-20T10:07:28.494Z,48.25
2023-03-20T10:09:34.717Z,52.45
2023-03-20T10:12:09.221Z,50.15
2023-03-20T10:14:27.039Z,48.20
2023-03-20T10:16:52.101Z,47.97
2023-03-20T10:19:06.450Z,46.70
2023-03-20T10:21:19.106Z,51.05
2023-03-20T10:23:35.965Z,52.80
2023-03-20T10:25:48.688Z,56.80
2023-03-20T10:28:00.700Z,48.08
2023-03-20T10:30:26.548Z,47.30
2023-03-20T10:32:39.548Z,48.05
2023-03-20T10:34:57.201Z,45.63
2023-03-20T10:37:23.382Z,46.92
2023-03-20T10:39:50.424Z,38.83
2023-03-20T10:41:59.295Z,49.15
2023-03-20T10:44:04.935Z,42.95
2023-03-20T10:46:13.990Z,44.90
2023-03-20T10:48:36.703Z,36.50
2023-03-20T10:50:47.943Z,33.40
2023-03-20T10:52:57.285Z,34.85
2023-03-20T10:55:06.749Z,38.22
2023-03-20T10:57:20.956Z,30.67
2023-03-20T10:59:29.043Z,29.40
2023-03-20T11:01:35.914Z,30.33
2023-03-20T11:03:44.452Z,39.22
2023-03-20T11:06:06.653Z,29.50
2023-03-20T11:08:17.553Z,28.67
2023-03-20T11:10:22.568Z,25.75
2023-03-20T11:12:27.417Z,30.10
2023-03-20T11:14:38.319Z,24.63
2023-03-20T11:16:43.453Z,26.08
2023-03-20T11:18:52.859Z,24.65
2023-03-20T11:21:00.259Z,25.73
2023-03-20T11:23:09.580Z,25.63
2023-03-20T11:25:27.705Z,21.92
2023-03-20T11:27:35.907Z,28.40
2023-03-20T11:29:45.185Z,23.33
2023-03-20T11:31:50.798Z,25.05
2023-03-20T11:34:27.020Z,27.20
2023-03-20T11:36:38.059Z,22.73
2023-03-20T11:38:54.856Z,25.35
2023-03-20T11:41:00.219Z,24.02
2023-03-20T11:43:14.086Z,27.73
2023-03-20T11:45:21.005Z,26.35
2023-03-20T11:47:30.323Z,25.13
2023-03-20T11:49:50.578Z,29.83
2023-03-20T11:51:56.580Z,29.98
2023-03-20T11:54:05.456Z,29.02
2023-03-20T11:56:14.487Z,25.13
2023-03-20T11:58:20.290Z,32.80
2023-03-20T12:00:29.240Z,28.00
2023-03-20T12:02:34.970Z,24.83
2023-03-20T12:04:45.731Z,27.10
2023-03-20T12:06:56.951Z,22.08
2023-03-20T12:09:06.648Z,23.58
2023-03-20T12:11:28.312Z,23.70
2023-03-20T12:13:38.561Z,21.83
2023-03-20T12:15:49.341Z,24.50
2023-03-20T12:17:59.319Z,29.02
2023-03-20T12:20:18.697Z,28.45
2023-03-20T12:22:29.818Z,30.80
2023-03-20T12:24:44.626Z,25.63
2023-03-20T12:26:59.435Z,32.15
2023-03-20T12:29:12.932Z,24.33
2023-03-20T12:31:27.823Z,27.70
2023-03-20T12:33:43.691Z,26.38
2023-03-20T12:35:56.728Z,24.33
2023-03-20T12:38:02.537Z,23.42
2023-03-20T12:40:15.126Z,23.13
2023-03-20T12:42:38.331Z,20.48
2023-03-20T12:44:51.171Z,23.60
2023-03-20T12:47:15.070Z,20.52
2023-03-20T12:49:37.297Z,18.63
2023-03-20T12:51:59.320Z,23.13
2023-03-20T12:54:21.959Z,18.52
2023-03-20T12:56:46.310Z,20.92
2023-03-20T12:59:00.669Z,19.77
2023-03-20T13:01:11.377Z,21.00
2023-03-20T13:03:36.100Z,19.08
2023-03-20T13:05:49.524Z,21.13
2023-03-20T13:08:32.564Z,19.50
2023-03-20T13:10:40.162Z,17.08
2023-03-20T13:13:05.468Z,21.70
2023-03-20T13:15:32.847Z,19.77
2023-03-20T13:17:47.360Z,18.23
2023-03-20T13:20:10.345Z,23.67
2023-03-20T13:22:23.441Z,19.67
2023-03-20T13:24:42.396Z,24.65
2023-03-20T13:26:55.058Z,21.88
2023-03-20T13:29:09.140Z,22.08
2023-03-20T13:31:27.585Z,24.63
2023-03-20T13:33:50.626Z,21.63
2023-03-20T13:36:01.989Z,21.85
2023-03-20T13:38:17.079Z,23.77
2023-03-20T13:40:29.365Z,23.88
2023-03-20T13:42:39.988Z,24.45
2023-03-20T13:44:46.517Z,27.08
2023-03-20T13:46:56.873Z,26.27
2023-03-20T13:49:09.967Z,25.48
2023-03-20T13:51:27.690Z,26.27
2023-03-20T13:53:40.568Z,29.25
2023-03-20T13:55:58.395Z,26.73
2023-03-20T13:58:22.267Z,29.45
2023-03-20T14:00:36.138Z,32.03
2023-03-20T14:02:59.110Z,29.15
2023-03-20T14:05:13.703Z,24.67
2023-03-20T14:07:34.445Z,23.88
2023-03-20T14:09:40.986Z,24.25
2023-03-20T14:11:49.171Z,23.80
2023-03-20T14:13:59.075Z,22.60
2023-03-20T14:16:10.311Z,23.00
2023-03-20T14:18:19.647Z,24.40
2023-03-20T14:20:32.643Z,24.30
2023-03-20T14:22:41.641Z,22.58
2023-03-20T14:25:03.154Z,21.30
2023-03-20T14:27:29.788Z,28.55
2023-03-20T14:31:52.241Z,23.88
2023-03-20T14:34:09.917Z,20.20
2023-03-20T14:36:24.916Z,20.40
2023-03-20T14:38:34.021Z,21.92
2023-03-20T14:40:47.299Z,20.33
2023-03-20T14:43:00.136Z,22.95
2023-03-20T14:45:35.454Z,20.38
2023-03-20T14:47:49.713Z,26.67
2023-03-20T14:50:00.195Z,20.60
2023-03-20T14:52:30.246Z,19.67
2023-03-20T14:54:36.118Z,23.25
2023-03-20T14:56:42.756Z,23.27
2023-03-20T14:58:58.225Z,23.45
2023-03-20T15:01:07.468Z,20.08
2023-03-20T15:03:17.148Z,20.65
2023-03-20T15:05:31.701Z,20.08
2023-03-20T15:07:41.656Z,22.00
2023-03-20T15:09:49.616Z,18.52
2023-03-20T15:11:55.394Z,17.65
2023-03-20T15:14:05.907Z,17.60
2023-03-20T15:16:14.642Z,23.08
2023-03-20T15:18:19.546Z,13.95
2023-03-20T15:20:29.358Z,14.48
2023-03-20T15:22:34.263Z,12.65
2023-03-20T15:24:39.133Z,14.18
2023-03-20T15:26:44.469Z,17.25
2023-03-20T15:28:50.035Z,16.83
2023-03-20T15:31:01.731Z,13.48
2023-03-20T15:33:07.580Z,13.20
2023-03-20T15:35:17.369Z,13.23
2023-03-20T15:37:27.134Z,10.55
2023-03-20T15:39:44.649Z,11.75
2023-03-20T15:41:54.759Z,8.73
2023-03-20T15:44:18.068Z,13.40
2023-03-20T15:46:32.167Z,11.13
2023-03-20T15:48:37.189Z,11.32
2023-03-20T15:50:45.552Z,10.45
2023-03-20T15:52:53.320Z,9.43
2023-03-20T15:55:00.145Z,11.30
2023-03-20T15:57:07.409Z,9.40
2023-03-20T15:59:16.761Z,10.15
2023-03-20T16:01:24.736Z,8.18
2023-03-20T16:03:34.075Z,9.35
2023-03-20T16:05:39.913Z,10.07
2023-03-20T16:07:45.938Z,6.05
2023-03-20T16:09:54.246Z,8.10
2023-03-20T16:12:02.770Z,7.53
2023-03-20T16:14:09.405Z,6.50
2023-03-20T16:16:18.959Z,7.18
2023-03-20T16:18:25.532Z,7.05
2023-03-20T16:20:39.188Z,7.93
2023-03-20T16:22:46.635Z,8.52
2023-03-20T16:24:55.570Z,6.47
2023-03-20T16:27:01.598Z,5.03
2023-03-20T16:29:08.708Z,8.40
2023-03-20T16:31:20.252Z,9.82
2023-03-20T16:33:25.306Z,5.72
2023-03-20T16:35:45.932Z,5.90
2023-03-20T16:37:56.016Z,7.07
2023-03-20T16:40:18.070Z,7.90
2023-03-20T16:42:28.481Z,5.68
2023-03-20T16:44:38.133Z,6.63
2023-03-20T16:47:00.717Z,4.82
2023-03-20T16:49:52.568Z,5.85
2023-03-20T16:52:03.115Z,8.43
2023-03-20T16:54:08.642Z,5.47
2023-03-20T16:56:20.055Z,11.27
2023-03-20T16:58:27.795Z,7.50
2023-03-20T17:00:36.241Z,5.07
2023-03-20T17:02:43.500Z,6.53
2023-03-20T17:04:51.370Z,4.72
2023-03-20T17:06:58.779Z,5.32
2023-03-20T17:09:27.313Z,7.18
2023-03-20T17:11:36.934Z,5.50
2023-03-20T17:13:43.970Z,5.65
2023-03-20T17:15:49.239Z,5.05
2023-03-20T17:17:54.484Z,6.97
2023-03-20T17:20:01.632Z,6.13
2023-03-20T17:22:14.611Z,5.15
2023-03-20T17:26:27.898Z,5.03
2023-03-20T17:28:37.563Z,5.82
2023-03-20T17:30:43.048Z,7.03
2023-03-20T17:32:48.520Z,7.10
2023-03-20T17:34:54.048Z,8.27
2023-03-20T17:37:01.376Z,8.10
2023-03-20T17:39:06.851Z,7.63
2023-03-20T17:41:17.777Z,6.20
2023-03-20T17:43:23.652Z,6.13
2023-03-20T17:45:28.578Z,5.68
2023-03-20T17:47:34.015Z,5.38
2023-03-20T17:49:39.176Z,6.70
2023-03-20T17:51:44.385Z,6.25
2023-03-20T17:53:55.105Z,6.00
2023-03-20T17:56:00.301Z,8.82
2023-03-20T17:58:07.762Z,6.32
2023-03-20T18:00:20.497Z,7.07
2023-03-20T18:02:25.458Z,5.97
2023-03-20T18:04:30.636Z,5.47
2023-03-20T18:06:37.267Z,7.75
2023-03-20T18:08:42.162Z,6.13
2023-03-20T18:10:47.922Z,9.77
2023-03-20T18:12:53.050Z,7.20
2023-03-20T18:15:00.801Z,5.95
2023-03-20T18:17:05.835Z,6.22
2023-03-20T18:19:17.352Z,6.28
2023-03-20T18:21:23.646Z,8.05
2023-03-20T18:23:28.846Z,6.85
2023-03-20T18:25:34.171Z,6.22
2023-03-20T18:27:39.048Z,11.02
2023-03-20T18:29:44.415Z,5.97
2023-03-20T18:31:53.146Z,12.68
2023-03-20T18:33:58.437Z,8.27
2023-03-20T18:36:03.781Z,12.55
2023-03-20T18:38:08.742Z,5.88
2023-03-20T18:40:26.003Z,8.05
2023-03-20T18:42:31.396Z,50.10
2023-03-20T18:44:36.680Z,5.38
2023-03-20T18:46:42.193Z,8.02
2023-03-20T18:48:50.876Z,8.73
2023-03-20T18:51:01.056Z,10.52
2023-03-20T18:53:08.743Z,7.30
2023-03-20T18:55:13.717Z,6.10
2023-03-20T18:57:18.857Z,9.40
2023-03-20T18:59:23.872Z,7.03
2023-03-20T19:01:29.410Z,12.40
2023-03-20T19:03:39.272Z,7.22
2023-03-20T19:05:47.097Z,9.10
2023-03-20T19:07:52.902Z,16.10
2023-03-20T19:09:57.766Z,18.77
2023-03-20T19:12:03.284Z,12.48
2023-03-20T19:14:08.261Z,9.57
2023-03-20T19:16:24.498Z,7.60
2023-03-20T19:18:30.045Z,8.85
2023-03-20T19:20:39.960Z,7.78
2023-03-20T19:22:47.676Z,7.03
2023-03-20T19:24:52.865Z,33.45
2023-03-20T19:26:58.228Z,33.50
2023-03-20T19:29:08.304Z,19.00
2023-03-20T19:31:14.913Z,6.13
2023-03-20T19:33:20.181Z,8.48
2023-03-20T19:37:53.649Z,9.20
2023-03-20T19:39:58.565Z,15.90
2023-03-20T19:42:19.952Z,9.38
2023-03-20T19:44:31.068Z,10.50
2023-03-20T19:46:41.183Z,24.88
2023-03-20T19:48:51.177Z,16.60
2023-03-20T19:50:58.199Z,10.90
2023-03-20T19:53:10.598Z,18.30
2023-03-20T19:55:16.184Z,34.75
2023-03-20T19:57:21.076Z,9.23
2023-03-20T19:59:26.161Z,15.85
2023-03-20T20:01:31.470Z,11.07
2023-03-20T20:03:37.111Z,17.80
2023-03-20T20:05:42.394Z,10.23
2023-03-20T20:08:16.935Z,9.68
2023-03-20T20:10:15.393Z,9.30
2023-03-20T20:12:20.307Z,9.02
2023-03-20T20:14:25.156Z,9.52
2023-03-20T20:16:30.557Z,11.30
2023-03-20T20:18:35.718Z,15.32
2023-03-20T20:21:27.322Z,19.48
2023-03-20T20:23:12.629Z,15.43
2023-03-20T20:25:23.124Z,12.70
2023-03-20T20:27:29.186Z,14.20
2023-03-20T20:29:34.396Z,22.00
2023-03-20T20:31:39.623Z,12.63
2023-03-20T20:34:01.148Z,9.38
2023-03-20T20:38:50.457Z,9.07
2023-03-20T20:40:58.716Z,13.65
2023-03-20T20:43:10.036Z,10.02
2023-03-20T20:45:16.353Z,36.95
2023-03-20T20:47:21.355Z,16.00
2023-03-20T20:49:27.597Z,18.83
2023-03-20T20:51:33.036Z,11.27
2023-03-20T20:53:37.909Z,11.63
2023-03-20T20:55:42.827Z,48.70
2023-03-20T20:57:51.349Z,31.30
2023-03-20T20:59:59.753Z,16.42
2023-03-20T21:02:10.497Z,14.05
2023-03-20T21:04:15.675Z,11.40
2023-03-20T21:06:21.510Z,11.82
2023-03-20T21:08:27.456Z,9.63
2023-03-20T21:10:32.372Z,8.18
2023-03-20T21:12:51.984Z,8.70
2023-03-20T21:15:06.841Z,14.95
2023-03-20T21:17:13.025Z,16.42
2023-03-20T21:19:18.236Z,24.92
2023-03-20T21:21:23.123Z,16.73
2023-03-20T21:23:28.404Z,15.25
2023-03-20T21:25:40.554Z,11.30
2023-03-20T21:27:46.411Z,14.90
2023-03-20T21:29:52.777Z,12.90
2023-03-20T21:32:00.429Z,16.58
2023-03-20T21:34:06.147Z,13.50
2023-03-20T21:36:11.841Z,13.27
2023-03-20T21:40:43.073Z,9.65
2023-03-20T21:42:48.685Z,20.40
2023-03-20T21:45:46.240Z,14.50
2023-03-20T21:55:45.482Z,15.63
2023-03-20T21:57:49.235Z,16.17
2023-03-20T22:00:06.837Z,16.58
2023-03-20T22:02:10.701Z,16.08
2023-03-20T22:07:35.972Z,11.77
2023-03-20T22:19:45.984Z,12.60
2023-03-20T22:21:58.982Z,14.05
2023-03-20T22:27:07.255Z,12.57
2023-03-20T22:29:28.626Z,13.40
2023-03-20T22:46:05.553Z,10.63
2023-03-20T22:48:16.604Z,13.40
2023-03-20T22:50:22.014Z,11.38
2023-03-20T22:52:41.780Z,11.25
2023-03-20T22:54:53.952Z,12.15
2023-03-20T22:56:58.802Z,25.10
2023-03-20T22:59:04.886Z,14.82
2023-03-20T23:01:11.849Z,15.55
2023-03-20T23:03:33.353Z,28.98
2023-03-20T23:05:44.172Z,19.20
2023-03-20T23:07:49.136Z,14.55
2023-03-20T23:09:56.922Z,10.27
2023-03-20T23:12:01.822Z,11.25
2023-03-20T23:14:18.231Z,12.95
2023-03-20T23:16:26.009Z,12.27
2023-03-20T23:18:31.054Z,10.90
2023-03-20T23:20:36.857Z,11.68
2023-03-20T23:22:42.268Z,13.02
2023-03-20T23:24:48.371Z,13.02
2023-03-20T23:26:56.977Z,11.20
2023-03-20T23:29:03.435Z,12.05
2023-03-20T23:31:12.129Z,13.95
2023-03-20T23:33:17.858Z,17.80
2023-03-20T23:35:23.543Z,14.05
2023-03-20T23:37:28.555Z,10.65
2023-03-20T23:39:33.426Z,12.63
2023-03-20T23:42:09.898Z,13.05
2023-03-20T23:44:06.780Z,24.45
2023-03-20T23:46:13.242Z,13.52
2023-03-20T23:48:18.733Z,13.15
2023-03-20T23:50:31.928Z,10.93
2023-03-20T23:52:53.401Z,14.43
2023-03-20T23:55:02.228Z,10.15
2023-03-20T23:57:07.404Z,14.35
